Boylston, New York
Current Conditions -  °F | °C
As of 4:56 AM on Saturday 01 Nov 2014 (Local Time) from KART Reporting Station
Overcast Overcast  
Wind Chill: 32°   Ceiling: 6000
Heat Index: 39°   Visibility: 10mi
Dew Point: 29°   Wind: 12mph
Humidity: 67%   Direction: 30°NNE
Pressure: 30.03"   Gusts: NA
Location:  43.6481°N, 75.9881°W
Report Text: KART 010856Z AUTO 03010KT 10SM BKN060 OVC110 04/M02 A3003 RMK AO2 SLP172 T00391017 52002
Loading
Personal Weather Stations






























Interactive Weather Map
Tropical Storm Tracking
New forecast layout! Learn more

10-Day Weather Forecast

Advertisements
Track Severe Weather on mobile